Main page
METAR-TAF:

METAR-TAF

Airports :

Santiago de Compostela Airport

Santiago de Compostela, Spain

latitude: 42-54N, longitude: 008-26W, elevation: 370 m

Current weather observation

The report was made 30 minutes ago, at 03:00 UTC
Wind 4 kt from variable directions
Temperature 14°C
Humidity 63%
Pressure 1026 hPa
Visibility 10 km or more
no clouds below 1500 m and no cumulonimbus

METAR: LEST 260300Z VRB04KT CAVOK 14/07 Q1026 NOSIG

Time: 05:30 (03:30 UTC)

Forecast

The report was made 4 hours and 30 minutes ago, at 23:00 UTC
Forecast valid from 26 at 00 UTC to 26 at 24 UTC
Wind 9 kt from the Northeast
Visibility 10 km or more
Few clouds at a height of 3000 ft
Probability 40% :
Temporary
from 26 at 13 UTC to 26 at 18 UTC
Wind 15 kt from the Northeast with gusts up to 25 kt

TAF: LEST 252300Z 2600/2624 04009KT 9999 FEW030 TX25/2614Z TN12/2605Z PROB40 TEMPO 2613/2618 05015G25KT

Weather observations and forecasts of more than 4000 airports (METAR and TAF reports).

The available stations are represented by yellow and red dots on the map.

Hover mouse over dot to see the name of the station.

Then click to see weather observations and forecasts.

To change the map : click on the green buttons with a black cross to zoom in, on the green button with a dash to zoom out, or on the green arrows for adjacent maps.


METAR-TAF: